createdAt,value
2023-03-25T00:03:37.664Z,10.96
2023-03-25T00:06:24.738Z,10.83
2023-03-25T00:09:11.921Z,10.84
2023-03-25T00:11:59.038Z,10.93
2023-03-25T00:14:54.847Z,10.90
2023-03-25T00:17:42.601Z,11.01
2023-03-25T00:20:29.726Z,10.94
2023-03-25T00:23:17.968Z,11.06
2023-03-25T00:26:06.122Z,11.24
2023-03-25T00:28:53.212Z,11.06
2023-03-25T00:31:40.967Z,11.13
2023-03-25T00:34:28.069Z,10.99
2023-03-25T00:37:21.945Z,10.96
2023-03-25T00:40:09.584Z,11.09
2023-03-25T00:42:57.447Z,11.16
2023-03-25T00:45:44.549Z,11.01
2023-03-25T00:48:31.603Z,11.09
2023-03-25T00:51:21.862Z,11.25
2023-03-25T00:54:10.199Z,11.02
2023-03-25T00:56:57.345Z,11.25
2023-03-25T00:59:44.656Z,11.15
2023-03-25T01:02:34.008Z,11.23
2023-03-25T01:05:21.420Z,11.13
2023-03-25T01:08:08.609Z,10.92
2023-03-25T01:10:56.907Z,11.02
2023-03-25T01:13:44.005Z,11.16
2023-03-25T01:16:32.651Z,11.13
2023-03-25T01:19:19.761Z,10.95
2023-03-25T01:22:06.939Z,10.97
2023-03-25T01:24:54.016Z,10.99
2023-03-25T01:27:41.094Z,11.27
2023-03-25T01:30:28.262Z,11.07
2023-03-25T01:33:15.287Z,11.20
2023-03-25T01:36:02.732Z,11.03
2023-03-25T01:38:50.727Z,10.95
2023-03-25T01:41:49.103Z,11.14
2023-03-25T01:44:39.978Z,11.18
2023-03-25T01:47:27.322Z,10.96
2023-03-25T01:50:15.230Z,10.96
2023-03-25T01:53:04.800Z,10.86
2023-03-25T01:55:53.470Z,10.87
2023-03-25T01:58:41.568Z,10.80
2023-03-25T02:01:28.819Z,10.89
2023-03-25T02:04:27.355Z,10.90
2023-03-25T02:07:16.771Z,10.89
2023-03-25T02:10:09.662Z,10.84
2023-03-25T02:12:57.022Z,10.61
2023-03-25T02:16:08.517Z,10.87
2023-03-25T02:19:01.521Z,10.69
2023-03-25T02:22:11.939Z,10.67
2023-03-25T02:25:19.304Z,10.90
2023-03-25T02:28:10.307Z,10.71
2023-03-25T02:31:34.818Z,10.66
2023-03-25T02:34:56.665Z,10.77
2023-03-25T02:38:21.858Z,10.71
2023-03-25T02:41:11.688Z,10.51
2023-03-25T02:44:05.748Z,10.63
2023-03-25T02:46:57.644Z,10.73
2023-03-25T02:49:48.685Z,10.39
2023-03-25T02:52:46.036Z,10.31
2023-03-25T02:55:34.469Z,10.39
2023-03-25T02:58:22.414Z,10.25
2023-03-25T03:01:14.992Z,10.35
2023-03-25T03:04:02.236Z,10.29
2023-03-25T03:06:49.525Z,10.37
2023-03-25T03:09:46.978Z,10.28
2023-03-25T03:12:47.385Z,10.32
2023-03-25T03:15:40.047Z,10.21
2023-03-25T03:18:57.387Z,10.13
2023-03-25T03:22:04.366Z,10.23
2023-03-25T03:25:02.969Z,10.19
2023-03-25T03:27:54.143Z,9.91
2023-03-25T03:30:49.471Z,10.11
2023-03-25T03:33:45.794Z,9.99
2023-03-25T03:36:41.099Z,10.01
2023-03-25T03:39:31.855Z,9.92
2023-03-25T03:42:28.261Z,9.94
2023-03-25T03:45:24.403Z,9.90
2023-03-25T03:48:22.290Z,9.87
2023-03-25T03:51:18.769Z,9.68
2023-03-25T03:54:21.177Z,9.77
2023-03-25T03:57:10.215Z,9.93
2023-03-25T04:00:18.195Z,9.81
2023-03-25T04:03:08.062Z,9.75
2023-03-25T04:06:08.259Z,9.58
2023-03-25T04:09:00.891Z,9.51
2023-03-25T04:11:54.923Z,9.41
2023-03-25T04:14:43.192Z,9.56
2023-03-25T04:17:33.049Z,9.42
2023-03-25T04:20:24.058Z,9.64
2023-03-25T04:23:16.569Z,9.39
2023-03-25T04:26:04.073Z,9.46
2023-03-25T04:28:51.860Z,9.31
2023-03-25T04:31:46.764Z,9.38
2023-03-25T04:34:34.079Z,9.39
2023-03-25T04:37:22.630Z,9.43
2023-03-25T04:40:10.385Z,9.53
2023-03-25T04:42:57.551Z,9.41
2023-03-25T04:45:49.822Z,9.60
2023-03-25T04:48:41.557Z,9.61
2023-03-25T04:51:30.375Z,9.66
2023-03-25T04:54:26.270Z,9.66
2023-03-25T04:57:13.606Z,9.60
2023-03-25T05:00:00.919Z,9.78
2023-03-25T05:02:54.172Z,9.76
2023-03-25T05:05:41.702Z,9.80
2023-03-25T05:08:29.398Z,9.49
2023-03-25T05:11:16.468Z,9.57
2023-03-25T05:14:03.883Z,9.61
2023-03-25T05:16:50.997Z,9.62
2023-03-25T05:19:38.035Z,9.62
2023-03-25T05:22:25.238Z,9.59
2023-03-25T05:25:12.267Z,9.62
2023-03-25T05:27:59.347Z,9.61
2023-03-25T05:30:47.570Z,9.33
2023-03-25T05:33:45.279Z,9.62
2023-03-25T05:36:32.950Z,9.63
2023-03-25T05:39:20.425Z,9.64
2023-03-25T05:42:07.577Z,9.63
2023-03-25T05:44:54.752Z,9.58
2023-03-25T05:47:42.329Z,9.52
2023-03-25T05:50:29.791Z,9.49
2023-03-25T05:53:17.182Z,9.54
2023-03-25T05:56:04.582Z,9.67
2023-03-25T05:58:52.877Z,9.67
2023-03-25T06:01:43.388Z,9.74
2023-03-25T06:04:34.080Z,9.84
2023-03-25T06:07:22.504Z,9.73
2023-03-25T06:10:17.399Z,9.93
2023-03-25T06:13:04.664Z,9.83
2023-03-25T06:15:56.310Z,9.78
2023-03-25T06:18:43.426Z,9.85
2023-03-25T06:21:33.932Z,10.11
2023-03-25T06:24:21.050Z,10.07
2023-03-25T06:27:13.626Z,10.27
2023-03-25T06:30:04.038Z,10.27
2023-03-25T06:32:52.554Z,10.22
2023-03-25T06:35:42.768Z,10.35
2023-03-25T06:38:30.184Z,10.42
2023-03-25T06:41:21.482Z,10.54
2023-03-25T06:44:08.550Z,10.64
2023-03-25T06:46:55.668Z,10.88
2023-03-25T06:49:42.724Z,11.02
2023-03-25T06:52:30.019Z,11.18
2023-03-25T06:55:17.181Z,11.39
2023-03-25T06:58:04.790Z,11.60
2023-03-25T07:00:55.201Z,11.78
2023-03-25T07:03:42.425Z,11.66
2023-03-25T07:06:29.547Z,11.59
2023-03-25T07:09:17.944Z,11.54
2023-03-25T07:12:11.098Z,11.76
2023-03-25T07:14:59.247Z,11.90
2023-03-25T07:17:49.492Z,12.02
2023-03-25T07:20:36.638Z,12.18
2023-03-25T07:23:23.699Z,11.95
2023-03-25T07:26:10.990Z,11.88
2023-03-25T07:28:58.079Z,12.28
2023-03-25T07:31:46.897Z,12.23
2023-03-25T07:34:34.167Z,12.32
2023-03-25T07:37:21.308Z,12.23
2023-03-25T07:40:09.281Z,11.90
2023-03-25T07:42:56.460Z,12.04
2023-03-25T07:45:44.698Z,11.74
2023-03-25T07:48:35.078Z,11.62
2023-03-25T07:51:22.163Z,11.87
2023-03-25T07:54:09.933Z,11.85
2023-03-25T07:56:57.778Z,12.10
2023-03-25T07:59:47.164Z,11.84
2023-03-25T08:02:34.941Z,12.05
2023-03-25T08:05:22.568Z,11.96
2023-03-25T08:08:10.010Z,12.32
2023-03-25T08:10:57.336Z,12.20
2023-03-25T08:13:44.504Z,12.13
2023-03-25T08:16:31.622Z,11.78
2023-03-25T08:19:18.874Z,12.02
2023-03-25T08:22:05.962Z,12.32
2023-03-25T08:24:53.487Z,12.16
2023-03-25T08:27:40.884Z,12.16
2023-03-25T08:30:27.945Z,12.21
2023-03-25T08:33:16.788Z,12.06
2023-03-25T08:36:04.046Z,12.20
2023-03-25T08:38:51.828Z,12.66
2023-03-25T08:41:39.976Z,12.62
2023-03-25T08:44:27.091Z,12.80
2023-03-25T08:47:14.110Z,12.69
2023-03-25T08:50:01.418Z,12.90
2023-03-25T08:52:48.738Z,13.16
2023-03-25T08:55:37.283Z,13.05
2023-03-25T08:58:25.777Z,13.10
2023-03-25T09:01:12.987Z,12.82
2023-03-25T09:04:00.149Z,13.43
2023-03-25T09:07:11.444Z,13.40
2023-03-25T09:09:54.363Z,13.45
2023-03-25T09:12:41.613Z,13.07
2023-03-25T09:15:28.734Z,12.56
2023-03-25T09:18:16.024Z,13.03
2023-03-25T09:21:03.757Z,12.03
2023-03-25T09:23:51.362Z,11.98
2023-03-25T09:26:38.469Z,12.24
2023-03-25T09:29:25.774Z,12.37
2023-03-25T09:32:13.191Z,12.38
2023-03-25T09:35:00.565Z,12.47
2023-03-25T09:37:51.899Z,12.79
2023-03-25T09:40:44.463Z,12.78
2023-03-25T09:43:38.024Z,12.94
2023-03-25T09:46:25.298Z,12.73
2023-03-25T09:49:17.034Z,12.69
2023-03-25T09:52:05.420Z,12.83
2023-03-25T09:54:57.554Z,12.90
2023-03-25T09:57:51.786Z,13.39
2023-03-25T10:00:40.685Z,13.11
2023-03-25T10:03:43.765Z,13.13
2023-03-25T10:06:33.417Z,13.58
2023-03-25T10:09:39.505Z,14.39
2023-03-25T10:12:48.078Z,14.50
2023-03-25T10:16:07.985Z,15.05
2023-03-25T10:19:37.070Z,13.88
2023-03-25T10:23:06.574Z,13.72
2023-03-25T10:26:04.407Z,14.16
2023-03-25T10:28:58.541Z,14.77
2023-03-25T10:31:54.769Z,14.25
2023-03-25T10:34:51.692Z,13.82
2023-03-25T10:37:44.892Z,13.81
2023-03-25T10:40:36.798Z,13.64
2023-03-25T10:43:27.843Z,13.30
2023-03-25T10:46:47.864Z,13.35
2023-03-25T10:49:37.297Z,13.22
2023-03-25T10:52:24.453Z,13.25
2023-03-25T10:55:26.868Z,13.63
2023-03-25T10:58:19.496Z,13.51
2023-03-25T11:01:18.515Z,13.77
2023-03-25T11:04:09.166Z,14.17
2023-03-25T11:06:59.534Z,14.62
2023-03-25T11:09:47.752Z,14.40
2023-03-25T11:12:42.830Z,14.78
2023-03-25T11:15:41.137Z,15.59
2023-03-25T11:18:36.290Z,15.91
2023-03-25T11:21:24.609Z,15.83
2023-03-25T11:24:18.123Z,14.46
2023-03-25T11:27:08.487Z,14.75
2023-03-25T11:30:07.527Z,14.43
2023-03-25T11:33:06.007Z,14.39
2023-03-25T11:35:53.278Z,13.73
2023-03-25T11:38:41.064Z,13.42
2023-03-25T11:41:31.399Z,13.73
2023-03-25T11:44:32.427Z,13.40
2023-03-25T11:47:25.978Z,13.75
2023-03-25T11:50:22.891Z,14.15
2023-03-25T11:53:16.922Z,14.44
2023-03-25T11:56:08.477Z,14.53
2023-03-25T11:59:00.012Z,14.62
2023-03-25T12:01:50.162Z,14.32
2023-03-25T12:04:37.376Z,14.85
2023-03-25T12:07:24.654Z,15.60
2023-03-25T12:10:23.912Z,15.05
2023-03-25T12:13:55.477Z,14.91
2023-03-25T12:16:58.866Z,14.17
2023-03-25T12:20:13.865Z,14.91
2023-03-25T12:23:02.547Z,15.61
2023-03-25T12:26:17.222Z,16.17
2023-03-25T12:29:38.257Z,16.77
2023-03-25T12:32:45.528Z,16.75
2023-03-25T12:36:09.347Z,16.35
2023-03-25T12:39:02.479Z,15.51
2023-03-25T12:42:11.436Z,14.39
2023-03-25T12:45:16.995Z,14.20
2023-03-25T12:48:37.532Z,14.49
2023-03-25T12:51:55.487Z,13.93
2023-03-25T12:54:50.905Z,13.47
2023-03-25T12:57:43.791Z,13.37
2023-03-25T13:00:47.304Z,13.47
2023-03-25T13:04:04.061Z,13.72
2023-03-25T13:07:14.039Z,14.48
2023-03-25T13:10:05.462Z,14.79
2023-03-25T13:12:57.147Z,14.99
2023-03-25T13:15:55.837Z,15.11
2023-03-25T13:18:48.489Z,14.87
2023-03-25T13:21:40.562Z,14.88
2023-03-25T13:24:47.315Z,15.12
2023-03-25T13:27:39.299Z,15.35
2023-03-25T13:30:34.486Z,15.19
2023-03-25T13:33:37.139Z,15.25
2023-03-25T13:36:32.242Z,15.09
2023-03-25T13:39:27.589Z,14.37
2023-03-25T13:42:25.699Z,14.30
2023-03-25T13:45:21.462Z,14.91
2023-03-25T13:48:23.767Z,16.13
2023-03-25T13:51:11.321Z,16.30
2023-03-25T13:54:16.942Z,16.74
2023-03-25T13:57:41.016Z,17.10
2023-03-25T14:01:12.414Z,16.96
2023-03-25T14:04:30.565Z,17.46
2023-03-25T14:07:37.069Z,17.92
2023-03-25T14:10:30.050Z,18.37
2023-03-25T14:13:42.445Z,18.31
2023-03-25T14:16:36.498Z,17.84
2023-03-25T14:19:38.947Z,17.42
2023-03-25T14:22:32.787Z,17.07
2023-03-25T14:25:27.736Z,16.60
2023-03-25T14:28:22.062Z,15.98
2023-03-25T14:31:15.238Z,16.51
2023-03-25T14:34:02.366Z,16.09
2023-03-25T14:36:50.513Z,16.14
2023-03-25T14:39:38.928Z,15.09
2023-03-25T14:42:29.771Z,15.07
2023-03-25T14:45:42.339Z,14.76
2023-03-25T14:48:34.571Z,14.68
2023-03-25T14:51:27.638Z,14.05
2023-03-25T14:54:34.131Z,14.24
2023-03-25T14:57:42.020Z,13.73
2023-03-25T15:00:34.139Z,13.74
2023-03-25T15:03:23.323Z,13.55
2023-03-25T15:06:17.098Z,13.20
2023-03-25T15:09:11.261Z,13.11
2023-03-25T15:12:05.880Z,12.89
2023-03-25T15:15:03.412Z,12.87
2023-03-25T15:17:50.649Z,13.03
2023-03-25T15:20:38.504Z,12.95
2023-03-25T15:23:33.680Z,13.09
2023-03-25T15:26:43.215Z,13.59
2023-03-25T15:29:50.174Z,13.08
2023-03-25T15:32:53.412Z,12.94
2023-03-25T15:35:49.630Z,12.27
2023-03-25T15:38:59.840Z,12.31
2023-03-25T15:42:03.652Z,12.03
2023-03-25T15:45:02.970Z,11.98
2023-03-25T15:48:02.329Z,12.08
2023-03-25T15:50:50.003Z,12.31
2023-03-25T15:53:48.193Z,12.22
2023-03-25T15:56:47.147Z,12.26
2023-03-25T15:59:43.406Z,12.27
2023-03-25T16:02:42.763Z,11.84
2023-03-25T16:05:36.238Z,11.70
2023-03-25T16:08:31.615Z,11.55
2023-03-25T16:11:21.582Z,10.98
2023-03-25T16:14:12.749Z,11.12
2023-03-25T16:17:03.130Z,10.76
2023-03-25T16:19:57.046Z,10.54
2023-03-25T16:22:49.712Z,10.46
2023-03-25T16:25:41.584Z,10.50
2023-03-25T16:28:39.708Z,10.15
2023-03-25T16:31:41.347Z,9.61
2023-03-25T16:34:34.277Z,9.56
2023-03-25T16:37:22.471Z,9.27
2023-03-25T16:40:20.756Z,9.23
2023-03-25T16:43:15.861Z,9.22
2023-03-25T16:46:05.832Z,8.93
2023-03-25T16:48:54.739Z,8.61
2023-03-25T16:51:47.834Z,8.76
2023-03-25T16:54:55.300Z,8.71
2023-03-25T16:57:42.484Z,8.91
2023-03-25T17:00:44.572Z,8.81
2023-03-25T17:03:39.630Z,8.96
2023-03-25T17:06:35.516Z,8.80
2023-03-25T17:09:34.232Z,8.66
2023-03-25T17:12:23.641Z,8.52
2023-03-25T17:15:16.667Z,8.45
2023-03-25T17:18:13.242Z,8.25
2023-03-25T17:21:01.641Z,8.24
2023-03-25T17:23:48.897Z,8.23
2023-03-25T17:27:05.619Z,8.14
2023-03-25T17:29:58.770Z,8.08
2023-03-25T17:32:47.030Z,8.14
2023-03-25T17:35:40.553Z,8.16
2023-03-25T17:38:34.606Z,7.96
2023-03-25T17:41:27.663Z,7.94
2023-03-25T17:44:17.514Z,7.96
2023-03-25T17:47:07.594Z,7.98
2023-03-25T17:49:54.587Z,7.94
2023-03-25T17:52:41.846Z,7.48
2023-03-25T17:55:29.230Z,7.51
2023-03-25T17:58:17.604Z,7.50
2023-03-25T18:01:05.224Z,7.47
2023-03-25T18:03:52.556Z,7.28
2023-03-25T18:06:40.083Z,7.31
2023-03-25T18:09:29.133Z,7.41
2023-03-25T18:12:17.415Z,7.27
2023-03-25T18:15:05.260Z,7.18
2023-03-25T18:17:55.756Z,7.19
2023-03-25T18:20:47.086Z,7.27
2023-03-25T18:23:34.958Z,7.24
2023-03-25T18:26:22.815Z,7.12
2023-03-25T18:29:17.370Z,7.22
2023-03-25T18:32:06.076Z,6.90
2023-03-25T18:34:53.598Z,7.08
2023-03-25T18:37:42.299Z,7.08
2023-03-25T18:40:37.267Z,7.09
2023-03-25T18:43:25.292Z,7.16
2023-03-25T18:46:14.904Z,7.06
2023-03-25T18:49:04.137Z,7.17
2023-03-25T18:51:51.841Z,7.07
2023-03-25T18:54:39.627Z,6.98
2023-03-25T18:57:27.507Z,6.87
2023-03-25T19:00:24.341Z,6.88
2023-03-25T19:03:14.589Z,6.92
2023-03-25T19:06:04.912Z,6.93
2023-03-25T19:08:55.859Z,6.97
2023-03-25T19:11:43.864Z,6.77
2023-03-25T19:14:31.678Z,6.79
2023-03-25T19:17:21.282Z,7.01
2023-03-25T19:20:12.093Z,7.02
2023-03-25T19:23:01.256Z,6.98
2023-03-25T19:25:51.361Z,6.92
2023-03-25T19:28:39.722Z,6.97
2023-03-25T19:31:30.117Z,6.92
2023-03-25T19:34:18.646Z,6.94
2023-03-25T19:37:09.927Z,6.79
2023-03-25T19:39:59.901Z,6.56
2023-03-25T19:42:50.718Z,6.35
2023-03-25T19:45:51.628Z,6.36
2023-03-25T19:48:40.541Z,6.61
2023-03-25T19:51:28.629Z,6.46
2023-03-25T19:54:16.356Z,6.21
2023-03-25T19:57:07.028Z,6.10
2023-03-25T19:59:55.839Z,5.96
2023-03-25T20:02:50.511Z,5.70
2023-03-25T20:05:38.516Z,5.71
2023-03-25T20:08:26.725Z,5.77
2023-03-25T20:11:15.789Z,5.82
2023-03-25T20:14:03.690Z,5.82
2023-03-25T20:16:51.398Z,5.85
2023-03-25T20:19:38.816Z,5.85
2023-03-25T20:22:28.999Z,5.91
2023-03-25T20:25:17.836Z,6.03
2023-03-25T20:28:06.618Z,6.14
2023-03-25T20:30:58.142Z,6.03
2023-03-25T20:33:49.803Z,6.12
2023-03-25T20:36:37.503Z,6.03
2023-03-25T20:39:24.917Z,5.82
2023-03-25T20:42:13.654Z,5.65
2023-03-25T20:45:01.433Z,5.31
2023-03-25T20:47:50.304Z,5.13
2023-03-25T20:50:38.394Z,5.52
2023-03-25T20:53:26.470Z,5.22
2023-03-25T20:56:14.311Z,5.30
2023-03-25T20:59:01.850Z,5.08
2023-03-25T21:01:53.389Z,5.22
2023-03-25T21:04:41.134Z,5.24
2023-03-25T21:07:30.560Z,5.19
2023-03-25T21:10:18.942Z,5.25
2023-03-25T21:13:08.330Z,5.19
2023-03-25T21:15:57.651Z,5.09
2023-03-25T21:18:45.219Z,4.88
2023-03-25T21:21:33.216Z,4.93
2023-03-25T21:24:22.688Z,5.11
2023-03-25T21:27:10.087Z,5.04
2023-03-25T21:29:57.216Z,5.13
2023-03-25T21:32:44.497Z,5.28
2023-03-25T21:35:32.667Z,5.07
2023-03-25T21:38:29.112Z,5.11
2023-03-25T21:41:16.741Z,5.05
2023-03-25T21:44:05.584Z,4.77
2023-03-25T21:46:53.681Z,4.82
2023-03-25T21:49:43.435Z,4.64
2023-03-25T21:52:31.716Z,4.52
2023-03-25T21:55:19.684Z,4.48
2023-03-25T21:58:06.869Z,4.43
2023-03-25T22:00:59.982Z,4.15
2023-03-25T22:03:48.656Z,3.88
2023-03-25T22:06:37.311Z,4.21
2023-03-25T22:09:24.514Z,4.21
2023-03-25T22:12:11.790Z,4.23
2023-03-25T22:15:03.189Z,3.91
2023-03-25T22:17:50.697Z,3.89
2023-03-25T22:20:37.854Z,3.86
2023-03-25T22:23:25.053Z,3.73
2023-03-25T22:26:13.304Z,3.88
2023-03-25T22:29:03.137Z,3.63
2023-03-25T22:31:50.849Z,3.69
2023-03-25T22:34:38.701Z,3.52
2023-03-25T22:37:25.844Z,3.44
2023-03-25T22:40:13.646Z,3.41
2023-03-25T22:43:01.108Z,3.59
2023-03-25T22:45:48.271Z,3.31
2023-03-25T22:48:39.254Z,3.46
2023-03-25T22:51:27.479Z,3.49
2023-03-25T22:54:14.737Z,3.17
2023-03-25T22:57:01.863Z,3.06
2023-03-25T22:59:51.167Z,3.33
2023-03-25T23:02:38.685Z,3.22
2023-03-25T23:05:26.068Z,3.26
2023-03-25T23:08:13.155Z,3.21
2023-03-25T23:11:03.339Z,3.30
2023-03-25T23:13:54.792Z,3.13
2023-03-25T23:16:42.144Z,3.20
2023-03-25T23:19:29.304Z,3.30
2023-03-25T23:22:19.826Z,3.46
2023-03-25T23:25:07.425Z,3.66
2023-03-25T23:27:58.114Z,3.73
2023-03-25T23:30:45.889Z,4.11
2023-03-25T23:33:34.491Z,3.93
2023-03-25T23:36:21.559Z,4.06
2023-03-25T23:39:17.374Z,4.08
2023-03-25T23:42:04.546Z,3.94
2023-03-25T23:44:51.905Z,3.99
2023-03-25T23:47:39.011Z,4.27
2023-03-25T23:50:26.223Z,4.13
2023-03-25T23:53:13.366Z,4.28
2023-03-25T23:56:00.472Z,4.14
2023-03-25T23:58:47.709Z,4.35
